createdAt,value
2024-02-27T00:00:45.122Z,101527.09
2024-02-27T00:03:12.814Z,101523.84
2024-02-27T00:05:40.479Z,101490.19
2024-02-27T00:08:08.973Z,101532.00
2024-02-27T00:10:36.673Z,101527.97
2024-02-27T00:13:05.135Z,101501.59
2024-02-27T00:15:32.898Z,101521.28
2024-02-27T00:18:02.218Z,101491.78
2024-02-27T00:20:29.923Z,101501.00
2024-02-27T00:22:57.570Z,101534.47
2024-02-27T00:25:31.331Z,101536.47
2024-02-27T00:27:59.012Z,101513.59
2024-02-27T00:30:26.746Z,101529.34
2024-02-27T00:32:54.732Z,101505.56
2024-02-27T00:35:23.784Z,101516.97
2024-02-27T00:37:51.437Z,101531.16
2024-02-27T00:40:19.416Z,101528.16
2024-02-27T00:42:47.401Z,101547.50
2024-02-27T00:45:15.173Z,101543.19
2024-02-27T00:47:42.926Z,101559.75
2024-02-27T00:50:11.017Z,101549.56
2024-02-27T00:52:40.067Z,101534.56
2024-02-27T00:55:08.408Z,101504.84
2024-02-27T00:57:36.435Z,101531.97
2024-02-27T01:00:10.075Z,101526.03
2024-02-27T01:02:38.646Z,101515.47
2024-02-27T01:05:07.555Z,101536.84
2024-02-27T01:07:35.645Z,101552.00
2024-02-27T01:10:07.232Z,101555.63
2024-02-27T01:12:34.994Z,101536.50
2024-02-27T01:15:03.986Z,101556.47
2024-02-27T01:17:32.123Z,101554.75
2024-02-27T01:19:59.824Z,101559.97
2024-02-27T01:22:28.631Z,101555.59
2024-02-27T01:24:56.671Z,101559.09
2024-02-27T01:27:25.968Z,101527.63
2024-02-27T01:29:54.852Z,101544.22
2024-02-27T01:32:22.989Z,101556.41
2024-02-27T01:34:51.008Z,101546.09
2024-02-27T01:37:19.115Z,101535.69
2024-02-27T01:39:47.341Z,101530.44
2024-02-27T01:42:15.087Z,101557.03
2024-02-27T01:44:50.206Z,101551.75
2024-02-27T01:47:19.145Z,101553.59
2024-02-27T01:49:48.393Z,101565.81
2024-02-27T01:52:17.140Z,101572.06
2024-02-27T01:54:46.932Z,101564.34
2024-02-27T01:57:16.092Z,101540.50
2024-02-27T01:59:45.338Z,101534.72
2024-02-27T02:02:15.205Z,101541.47
2024-02-27T02:04:42.946Z,101562.16
2024-02-27T02:07:11.964Z,101560.50
2024-02-27T02:09:40.151Z,101573.84
2024-02-27T02:12:08.777Z,101569.53
2024-02-27T02:14:36.819Z,101569.09
2024-02-27T02:17:06.301Z,101553.88
2024-02-27T02:19:34.099Z,101572.31
2024-02-27T02:22:03.685Z,101575.06
2024-02-27T02:24:32.688Z,101575.13
2024-02-27T02:27:01.081Z,101588.16
2024-02-27T02:29:29.889Z,101568.16
2024-02-27T02:31:57.673Z,101574.38
2024-02-27T02:34:25.451Z,101541.81
2024-02-27T02:36:53.250Z,101567.72
2024-02-27T02:39:22.563Z,101548.16
2024-02-27T02:41:50.215Z,101555.50
2024-02-27T02:44:17.918Z,101556.78
2024-02-27T02:46:45.592Z,101545.84
2024-02-27T02:49:13.470Z,101571.94
2024-02-27T02:51:41.275Z,101593.13
2024-02-27T02:54:08.993Z,101546.09
2024-02-27T02:56:38.077Z,101592.38
2024-02-27T02:59:06.224Z,101578.13
2024-02-27T03:01:33.949Z,101603.47
2024-02-27T03:04:01.638Z,101570.44
2024-02-27T03:06:29.349Z,101570.22
2024-02-27T03:08:57.026Z,101602.19
2024-02-27T03:11:24.919Z,101616.91
2024-02-27T03:13:53.998Z,101618.91
2024-02-27T03:16:21.767Z,101633.69
2024-02-27T03:18:49.554Z,101640.59
2024-02-27T03:21:17.342Z,101617.72
2024-02-27T03:23:45.000Z,101631.81
2024-02-27T03:26:17.428Z,101587.22
2024-02-27T03:28:45.072Z,101613.34
2024-02-27T03:31:14.082Z,101623.16
2024-02-27T03:33:42.063Z,101626.00
2024-02-27T03:36:10.278Z,101589.34
2024-02-27T03:38:37.936Z,101619.84
2024-02-27T03:41:05.844Z,101608.47
2024-02-27T03:43:33.514Z,101615.22
2024-02-27T03:46:01.146Z,101621.00
2024-02-27T03:48:30.373Z,101639.31
2024-02-27T03:50:58.393Z,101633.44
2024-02-27T03:53:26.157Z,101615.25
2024-02-27T03:55:53.797Z,101599.75
2024-02-27T03:58:21.447Z,101639.22
2024-02-27T04:00:49.533Z,101609.06
2024-02-27T04:03:17.376Z,101645.63
2024-02-27T04:05:46.450Z,101640.34
2024-02-27T04:08:14.164Z,101651.84
2024-02-27T04:10:42.137Z,101658.19
2024-02-27T04:13:09.775Z,101651.19
2024-02-27T04:15:37.488Z,101646.19
2024-02-27T04:18:07.232Z,101643.94
2024-02-27T04:20:34.998Z,101665.41
2024-02-27T04:23:04.451Z,101658.91
2024-02-27T04:25:33.037Z,101660.75
2024-02-27T04:28:00.700Z,101671.47
2024-02-27T04:30:28.668Z,101669.88
2024-02-27T04:32:56.523Z,101642.44
2024-02-27T04:35:24.434Z,101653.22
2024-02-27T04:37:52.196Z,101651.25
2024-02-27T04:40:21.381Z,101656.59
2024-02-27T04:42:49.188Z,101664.56
2024-02-27T04:45:17.036Z,101642.75
2024-02-27T04:47:44.794Z,101631.13
2024-02-27T04:50:12.537Z,101633.44
2024-02-27T04:52:40.218Z,101654.19
2024-02-27T04:55:08.892Z,101637.06
2024-02-27T04:57:37.879Z,101653.63
2024-02-27T05:00:07.799Z,101631.75
2024-02-27T05:02:35.472Z,101638.66
2024-02-27T05:05:03.235Z,101666.66
2024-02-27T05:07:30.851Z,101641.91
2024-02-27T05:09:58.565Z,101650.72
2024-02-27T05:12:26.214Z,101663.97
2024-02-27T05:14:55.252Z,101642.22
2024-02-27T05:17:22.906Z,101654.63
2024-02-27T05:19:50.612Z,101646.28
2024-02-27T05:22:18.371Z,101646.84
2024-02-27T05:24:46.208Z,101628.91
2024-02-27T05:27:14.521Z,101667.94
2024-02-27T05:29:42.268Z,101676.28
2024-02-27T05:32:11.426Z,101655.81
2024-02-27T05:34:39.248Z,101640.59
2024-02-27T05:37:07.320Z,101662.75
2024-02-27T05:39:35.097Z,101652.34
2024-02-27T05:42:02.978Z,101662.16
2024-02-27T05:44:30.638Z,101643.56
2024-02-27T05:46:58.298Z,101677.03
2024-02-27T05:49:27.372Z,101678.97
2024-02-27T05:51:55.035Z,101665.22
2024-02-27T05:54:22.726Z,101672.13
2024-02-27T05:56:50.510Z,101693.34
2024-02-27T05:59:18.220Z,101694.47
2024-02-27T06:01:45.998Z,101675.75
2024-02-27T06:04:13.833Z,101689.25
2024-02-27T06:06:42.993Z,101703.59
2024-02-27T06:09:10.668Z,101670.41
2024-02-27T06:11:38.383Z,101667.91
2024-02-27T06:14:05.976Z,101678.25
2024-02-27T06:16:34.475Z,101688.97
2024-02-27T06:19:02.259Z,101696.72
2024-02-27T06:21:47.789Z,101720.56
2024-02-27T06:24:17.007Z,101709.41
2024-02-27T06:26:44.689Z,101721.00
2024-02-27T06:29:12.383Z,101730.91
2024-02-27T06:31:40.125Z,101711.75
2024-02-27T06:34:07.915Z,101726.28
2024-02-27T06:36:35.676Z,101724.78
2024-02-27T06:39:03.438Z,101742.34
2024-02-27T06:41:32.432Z,101706.66
2024-02-27T06:44:00.070Z,101701.00
2024-02-27T06:46:27.738Z,101745.81
2024-02-27T06:49:03.777Z,101748.84
2024-02-27T06:51:39.216Z,101753.34
2024-02-27T06:54:07.402Z,101717.13
2024-02-27T06:56:36.424Z,101707.72
2024-02-27T06:59:04.086Z,101756.88
2024-02-27T07:01:32.049Z,101724.16
2024-02-27T07:03:59.805Z,101750.72
2024-02-27T07:06:27.490Z,101736.31
2024-02-27T07:08:56.589Z,101757.28
2024-02-27T07:11:24.408Z,101759.91
2024-02-27T07:13:53.443Z,101771.44
2024-02-27T07:16:21.085Z,101733.31
2024-02-27T07:18:49.570Z,101761.97
2024-02-27T07:21:20.566Z,101744.44
2024-02-27T07:23:48.800Z,101750.63
2024-02-27T07:26:16.617Z,101751.66
2024-02-27T07:28:48.121Z,101766.81
2024-02-27T07:31:19.892Z,101756.97
2024-02-27T07:33:47.688Z,101758.59
2024-02-27T07:36:15.485Z,101768.38
2024-02-27T07:38:43.140Z,101779.31
2024-02-27T07:41:11.443Z,101757.88
2024-02-27T07:43:39.114Z,101774.63
2024-02-27T07:46:08.228Z,101757.66
2024-02-27T07:48:37.297Z,101769.03
2024-02-27T07:51:05.575Z,101766.84
2024-02-27T07:53:34.443Z,101777.72
2024-02-27T07:56:02.418Z,101790.00
2024-02-27T07:58:30.036Z,101790.50
2024-02-27T08:00:57.882Z,101776.81
2024-02-27T08:03:25.859Z,101790.75
2024-02-27T08:05:55.073Z,101772.00
2024-02-27T08:08:23.639Z,101786.25
2024-02-27T08:10:51.296Z,101795.09
2024-02-27T08:13:23.767Z,101796.19
2024-02-27T08:15:52.299Z,101774.56
2024-02-27T08:18:20.300Z,101757.66
2024-02-27T08:20:49.049Z,101777.44
2024-02-27T08:23:18.214Z,101781.31
2024-02-27T08:25:46.019Z,101763.31
2024-02-27T08:28:13.825Z,101786.16
2024-02-27T08:30:41.519Z,101773.03
2024-02-27T08:33:09.358Z,101785.78
2024-02-27T08:35:37.054Z,101787.88
2024-02-27T08:38:05.216Z,101788.59
2024-02-27T08:40:34.713Z,101791.94
2024-02-27T08:43:02.404Z,101797.63
2024-02-27T08:45:31.922Z,101785.28
2024-02-27T08:47:59.708Z,101794.03
2024-02-27T08:50:27.379Z,101784.34
2024-02-27T08:52:55.001Z,101790.41
2024-02-27T08:55:26.186Z,101803.56
2024-02-27T08:57:55.270Z,101813.66
2024-02-27T09:00:24.418Z,101815.34
2024-02-27T09:02:52.048Z,101797.94
2024-02-27T09:05:19.847Z,101813.78
2024-02-27T09:07:47.562Z,101820.03
2024-02-27T09:10:15.166Z,101794.31
2024-02-27T09:12:43.164Z,101777.50
2024-02-27T09:15:12.613Z,101809.06
2024-02-27T09:17:40.403Z,101815.03
2024-02-27T09:20:10.113Z,101783.41
2024-02-27T09:22:39.075Z,101788.50
2024-02-27T09:25:07.299Z,101801.69
2024-02-27T09:27:36.920Z,101779.38
2024-02-27T09:30:05.882Z,101772.31
2024-02-27T09:32:34.959Z,101783.91
2024-02-27T09:35:02.897Z,101802.50
2024-02-27T09:37:30.732Z,101788.72
2024-02-27T09:39:59.723Z,101792.13
2024-02-27T09:42:35.191Z,101798.59
2024-02-27T09:45:07.505Z,101778.91
2024-02-27T09:47:40.007Z,101774.97
2024-02-27T09:50:10.572Z,101778.13
2024-02-27T09:52:39.202Z,101757.53
2024-02-27T09:55:09.755Z,101769.78
2024-02-27T09:57:38.791Z,101782.44
2024-02-27T10:00:07.914Z,101795.00
2024-02-27T10:02:39.063Z,101795.63
2024-02-27T10:05:08.853Z,101795.66
2024-02-27T10:07:36.599Z,101771.53
2024-02-27T10:10:04.802Z,101806.13
2024-02-27T10:12:32.481Z,101795.00
2024-02-27T10:15:00.276Z,101788.25
2024-02-27T10:17:29.074Z,101799.53
2024-02-27T10:19:58.300Z,101782.66
2024-02-27T10:22:26.052Z,101790.66
2024-02-27T10:25:05.623Z,101800.97
2024-02-27T10:27:33.516Z,101788.22
2024-02-27T10:30:01.834Z,101791.16
2024-02-27T10:32:33.233Z,101820.69
2024-02-27T10:35:04.201Z,101817.09
2024-02-27T10:37:33.666Z,101786.72
2024-02-27T10:40:02.762Z,101773.53
2024-02-27T10:42:30.607Z,101808.00
2024-02-27T10:44:58.409Z,101802.16
2024-02-27T10:47:27.588Z,101798.84
2024-02-27T10:49:56.231Z,101804.59
2024-02-27T10:52:27.561Z,101811.16
2024-02-27T10:54:57.431Z,101800.91
2024-02-27T10:57:26.567Z,101778.91
2024-02-27T10:59:54.643Z,101789.38
2024-02-27T11:02:22.707Z,101801.25
2024-02-27T11:04:53.586Z,101815.53
2024-02-27T11:07:22.311Z,101812.03
2024-02-27T11:09:53.531Z,101792.72
2024-02-27T11:12:22.719Z,101810.50
2024-02-27T11:14:58.341Z,101788.75
2024-02-27T11:17:29.280Z,101794.41
2024-02-27T11:19:57.142Z,101804.44
2024-02-27T11:22:25.709Z,101797.47
2024-02-27T11:24:55.696Z,101792.50
2024-02-27T11:27:25.391Z,101800.41
2024-02-27T11:29:54.122Z,101810.00
2024-02-27T11:32:22.749Z,101789.19
2024-02-27T11:34:50.764Z,101801.31
2024-02-27T11:37:21.220Z,101791.56
2024-02-27T11:39:49.973Z,101791.69
2024-02-27T11:42:29.403Z,101782.31
2024-02-27T11:45:05.250Z,101783.22
2024-02-27T11:47:42.905Z,101784.16
2024-02-27T11:50:11.586Z,101785.06
2024-02-27T11:52:43.725Z,101773.66
2024-02-27T11:55:13.502Z,101777.16
2024-02-27T11:57:42.696Z,101766.13
2024-02-27T12:00:15.882Z,101753.06
2024-02-27T12:02:49.082Z,101764.31
2024-02-27T12:05:18.078Z,101764.91
2024-02-27T12:07:46.047Z,101753.66
2024-02-27T12:10:15.357Z,101758.91
2024-02-27T12:12:46.057Z,101757.50
2024-02-27T12:15:14.310Z,101743.47
2024-02-27T12:17:42.411Z,101739.16
2024-02-27T12:20:11.867Z,101744.59
2024-02-27T12:22:41.012Z,101733.28
2024-02-27T12:25:10.063Z,101744.25
2024-02-27T12:27:38.920Z,101760.72
2024-02-27T12:30:11.547Z,101741.69
2024-02-27T12:32:40.855Z,101739.31
2024-02-27T12:35:10.514Z,101738.44
2024-02-27T12:37:42.172Z,101712.00
2024-02-27T12:40:13.497Z,101688.81
2024-02-27T12:42:42.715Z,101709.50
2024-02-27T12:45:13.118Z,101735.06
2024-02-27T12:47:41.833Z,101716.94
2024-02-27T12:50:11.032Z,101712.69
2024-02-27T12:52:39.981Z,101711.66
2024-02-27T12:55:09.805Z,101719.47
2024-02-27T12:57:37.926Z,101736.34
2024-02-27T13:00:09.390Z,101732.22
2024-02-27T13:02:38.531Z,101720.44
2024-02-27T13:05:09.036Z,101717.91
2024-02-27T13:07:39.730Z,101696.34
2024-02-27T13:10:08.427Z,101686.75
2024-02-27T13:12:36.130Z,101706.69
2024-02-27T13:15:04.442Z,101691.16
2024-02-27T13:17:32.270Z,101696.28
2024-02-27T13:20:01.441Z,101708.41
2024-02-27T13:22:29.077Z,101712.69
2024-02-27T13:24:57.493Z,101692.78
2024-02-27T13:27:25.642Z,101700.56
2024-02-27T13:29:54.806Z,101717.66
2024-02-27T13:32:22.544Z,101701.06
2024-02-27T13:34:50.383Z,101707.28
2024-02-27T13:37:19.660Z,101711.63
2024-02-27T13:39:47.377Z,101720.53
2024-02-27T13:42:15.621Z,101701.59
2024-02-27T13:44:43.434Z,101713.44
2024-02-27T13:47:11.557Z,101734.19
2024-02-27T13:49:39.904Z,101720.47
2024-02-27T13:52:08.063Z,101715.34
2024-02-27T13:54:38.124Z,101697.22
2024-02-27T13:57:05.888Z,101694.22
2024-02-27T13:59:33.651Z,101706.66
2024-02-27T14:02:02.335Z,101702.38
2024-02-27T14:04:30.588Z,101676.53
2024-02-27T14:06:58.731Z,101699.78
2024-02-27T14:09:26.488Z,101695.50
2024-02-27T14:11:55.562Z,101682.56
2024-02-27T14:14:23.295Z,101688.50
2024-02-27T14:16:50.905Z,101680.25
2024-02-27T14:19:18.665Z,101688.53
2024-02-27T14:21:46.629Z,101695.53
2024-02-27T14:24:14.333Z,101684.31
2024-02-27T14:26:41.965Z,101665.31
2024-02-27T14:29:10.949Z,101680.56
2024-02-27T14:31:38.622Z,101684.16
2024-02-27T14:34:06.617Z,101685.97
2024-02-27T14:36:35.839Z,101693.59
2024-02-27T14:39:03.627Z,101701.50
2024-02-27T14:41:31.310Z,101694.59
2024-02-27T14:43:59.483Z,101704.13
2024-02-27T14:46:29.120Z,101704.09
2024-02-27T14:48:56.803Z,101702.34
2024-02-27T14:51:24.552Z,101698.00
2024-02-27T14:53:52.248Z,101698.00
2024-02-27T14:56:19.930Z,101703.13
2024-02-27T14:58:47.543Z,101699.75
2024-02-27T15:01:15.302Z,101703.19
2024-02-27T15:03:44.419Z,101698.00
2024-02-27T15:06:13.769Z,101695.44
2024-02-27T15:08:41.558Z,101697.13
2024-02-27T15:11:09.616Z,101697.97
2024-02-27T15:13:37.344Z,101691.97
2024-02-27T15:16:05.926Z,101689.47
2024-02-27T15:18:33.656Z,101702.38
2024-02-27T15:21:06.157Z,101704.09
2024-02-27T15:23:33.786Z,101713.56
2024-02-27T15:26:01.589Z,101704.13
2024-02-27T15:28:29.281Z,101721.34
2024-02-27T15:30:57.042Z,101713.50
2024-02-27T15:33:24.897Z,101698.88
2024-02-27T15:35:52.659Z,101694.66
2024-02-27T15:38:21.689Z,101686.03
2024-02-27T15:40:49.365Z,101699.81
2024-02-27T15:43:17.192Z,101696.34
2024-02-27T15:45:45.415Z,101687.72
2024-02-27T15:48:13.198Z,101696.34
2024-02-27T15:50:40.993Z,101690.31
2024-02-27T15:53:08.800Z,101702.09
2024-02-27T15:55:37.977Z,101719.53
2024-02-27T15:58:05.797Z,101714.44
2024-02-27T16:00:33.530Z,101708.16
2024-02-27T16:03:09.129Z,101718.41
2024-02-27T16:05:36.988Z,101708.47
2024-02-27T16:08:05.085Z,101729.47
2024-02-27T16:10:32.987Z,101719.06
2024-02-27T16:13:02.052Z,101727.91
2024-02-27T16:15:31.012Z,101732.44
2024-02-27T16:18:00.971Z,101712.69
2024-02-27T16:20:28.648Z,101713.56
2024-02-27T16:22:56.242Z,101731.66
2024-02-27T16:25:24.129Z,101733.41
2024-02-27T16:27:53.267Z,101729.97
2024-02-27T16:30:22.336Z,101726.50
2024-02-27T16:32:50.280Z,101721.31
2024-02-27T16:35:18.470Z,101705.81
2024-02-27T16:37:46.279Z,101727.38
2024-02-27T16:40:14.761Z,101721.34
2024-02-27T16:42:42.980Z,101719.63
2024-02-27T16:45:10.879Z,101707.53
2024-02-27T16:47:39.961Z,101712.69
2024-02-27T16:50:08.308Z,101706.66
2024-02-27T16:52:36.035Z,101723.91
2024-02-27T16:55:03.813Z,101724.78
2024-02-27T16:57:31.589Z,101724.34
2024-02-27T16:59:59.625Z,101734.19
2024-02-27T17:02:27.418Z,101741.09
2024-02-27T17:04:56.524Z,101748.00
2024-02-27T17:07:26.107Z,101741.13
2024-02-27T17:09:53.928Z,101742.88
2024-02-27T17:12:21.598Z,101734.22
2024-02-27T17:14:49.223Z,101733.41
2024-02-27T17:17:16.903Z,101731.66
2024-02-27T17:19:44.692Z,101727.28
2024-02-27T17:22:13.836Z,101738.53
2024-02-27T17:24:41.526Z,101731.63
2024-02-27T17:27:10.320Z,101735.91
2024-02-27T17:29:37.979Z,101747.13
2024-02-27T17:32:06.336Z,101760.94
2024-02-27T17:34:34.245Z,101763.53
2024-02-27T17:37:03.708Z,101748.88
2024-02-27T17:39:34.021Z,101747.13
2024-02-27T17:42:01.659Z,101752.28
2024-02-27T17:44:30.495Z,101754.81
2024-02-27T17:46:58.157Z,101751.34
2024-02-27T17:49:25.834Z,101759.94
2024-02-27T17:51:53.706Z,101771.19
2024-02-27T17:54:21.429Z,101773.75
2024-02-27T17:56:50.968Z,101764.28
2024-02-27T17:59:18.838Z,101765.13
2024-02-27T18:01:46.542Z,101776.31
2024-02-27T18:04:14.338Z,101787.50
2024-02-27T18:06:42.138Z,101788.34
2024-02-27T18:09:10.268Z,101801.28
2024-02-27T18:11:37.940Z,101803.06
2024-02-27T18:14:07.142Z,101790.91
2024-02-27T18:16:34.767Z,101800.44
2024-02-27T18:19:03.286Z,101795.25
2024-02-27T18:21:31.061Z,101807.31
2024-02-27T18:23:58.685Z,101809.09
2024-02-27T18:26:26.331Z,101811.66
2024-02-27T18:28:53.951Z,101812.53
2024-02-27T18:31:23.489Z,101799.56
2024-02-27T18:33:51.484Z,101810.78
2024-02-27T18:36:19.192Z,101805.53
2024-02-27T18:38:46.876Z,101808.97
2024-02-27T18:41:14.766Z,101806.44
2024-02-27T18:43:42.494Z,101815.91
2024-02-27T18:46:12.419Z,101812.44
2024-02-27T18:48:41.664Z,101808.09
2024-02-27T18:51:11.561Z,101811.59
2024-02-27T18:53:40.464Z,101814.22
2024-02-27T18:56:08.839Z,101806.38
2024-02-27T18:58:36.608Z,101808.97
2024-02-27T19:01:05.096Z,101818.47
2024-02-27T19:03:33.237Z,101813.34
2024-02-27T19:06:04.602Z,101817.63
2024-02-27T19:08:32.328Z,101817.47
2024-02-27T19:11:01.240Z,101825.25
2024-02-27T19:13:29.350Z,101825.19
2024-02-27T19:15:57.111Z,101826.13
2024-02-27T19:18:25.027Z,101820.09
2024-02-27T19:20:52.777Z,101827.91
2024-02-27T19:23:21.758Z,101818.38
2024-02-27T19:25:49.672Z,101823.59
2024-02-27T19:28:17.326Z,101814.06
2024-02-27T19:30:46.817Z,101818.47
2024-02-27T19:33:15.591Z,101815.03
2024-02-27T19:35:43.875Z,101805.44
2024-02-27T19:38:18.340Z,101811.41
2024-02-27T19:40:48.551Z,101820.16
2024-02-27T19:43:16.729Z,101810.66
2024-02-27T19:45:46.039Z,101820.97
2024-02-27T19:48:14.014Z,101818.34
2024-02-27T19:50:44.469Z,101804.44
2024-02-27T19:53:12.130Z,101821.63
2024-02-27T19:55:40.748Z,101821.66
2024-02-27T19:58:09.784Z,101832.06
2024-02-27T20:00:38.163Z,101826.06
2024-02-27T20:03:06.819Z,101821.75
2024-02-27T20:05:34.989Z,101813.97
2024-02-27T20:08:02.840Z,101818.75
2024-02-27T20:10:31.149Z,101827.03
2024-02-27T20:12:58.824Z,101816.59
2024-02-27T20:15:27.912Z,101826.47
2024-02-27T20:17:56.312Z,101838.69
2024-02-27T20:20:23.976Z,101836.09
2024-02-27T20:22:51.677Z,101819.97
2024-02-27T20:25:19.554Z,101837.03
2024-02-27T20:27:47.511Z,101853.06
2024-02-27T20:30:15.520Z,101857.41
2024-02-27T20:32:44.870Z,101846.44
2024-02-27T20:35:12.551Z,101856.91
2024-02-27T20:37:40.271Z,101848.28
2024-02-27T20:40:10.221Z,101835.25
2024-02-27T20:42:37.905Z,101828.16
2024-02-27T20:45:06.758Z,101820.09
2024-02-27T20:47:36.210Z,101828.88
2024-02-27T20:50:10.640Z,101836.41
2024-02-27T20:52:39.096Z,101842.19
2024-02-27T20:55:07.863Z,101847.56
2024-02-27T20:57:35.702Z,101854.59
2024-02-27T21:00:03.954Z,101835.25
2024-02-27T21:02:34.335Z,101845.38
2024-02-27T21:05:02.032Z,101847.88
2024-02-27T21:07:31.298Z,101853.25
2024-02-27T21:09:59.054Z,101858.41
2024-02-27T21:12:27.053Z,101857.81
2024-02-27T21:14:57.030Z,101852.66
2024-02-27T21:17:26.844Z,101864.91
2024-02-27T21:19:54.616Z,101865.63
2024-02-27T21:22:22.244Z,101872.88
2024-02-27T21:24:51.328Z,101871.28
2024-02-27T21:27:19.490Z,101863.44
2024-02-27T21:29:47.178Z,101880.66
2024-02-27T21:32:15.773Z,101881.56
2024-02-27T21:34:43.749Z,101878.97
2024-02-27T21:37:11.460Z,101857.28
2024-02-27T21:39:39.213Z,101872.22
2024-02-27T21:42:08.926Z,101885.69
2024-02-27T21:44:36.688Z,101878.88
2024-02-27T21:47:04.371Z,101883.19
2024-02-27T21:49:32.247Z,101869.19
2024-02-27T21:52:03.543Z,101870.03
2024-02-27T21:54:32.153Z,101883.88
2024-02-27T21:56:59.839Z,101872.63
2024-02-27T21:59:28.812Z,101869.31
2024-02-27T22:01:56.499Z,101870.28
2024-02-27T22:04:24.243Z,101875.47
2024-02-27T22:06:51.875Z,101868.53
2024-02-27T22:09:19.649Z,101870.31
2024-02-27T22:11:47.499Z,101879.00
2024-02-27T22:14:15.154Z,101864.09
2024-02-27T22:16:44.182Z,101855.00
2024-02-27T22:19:12.170Z,101861.38
2024-02-27T22:21:40.197Z,101861.97
2024-02-27T22:24:08.270Z,101873.22
2024-02-27T22:26:37.128Z,101870.75
2024-02-27T22:29:04.791Z,101869.44
2024-02-27T22:31:32.536Z,101885.09
2024-02-27T22:34:03.022Z,101872.16
2024-02-27T22:36:30.825Z,101882.63
2024-02-27T22:38:58.467Z,101873.34
2024-02-27T22:41:26.094Z,101891.50
2024-02-27T22:43:53.705Z,101893.72
2024-02-27T22:46:25.720Z,101906.84
2024-02-27T22:48:53.601Z,101892.03
2024-02-27T22:51:22.753Z,101895.66
2024-02-27T22:53:50.770Z,101895.69
2024-02-27T22:56:18.456Z,101874.09
2024-02-27T22:58:46.131Z,101874.72
2024-02-27T23:01:14.091Z,101882.72
2024-02-27T23:03:41.776Z,101884.03
2024-02-27T23:06:09.504Z,101883.81
2024-02-27T23:08:38.657Z,101890.03
2024-02-27T23:11:06.562Z,101891.91
2024-02-27T23:13:34.394Z,101877.94
2024-02-27T23:16:02.241Z,101870.53
2024-02-27T23:18:29.869Z,101862.56
2024-02-27T23:20:57.599Z,101876.91
2024-02-27T23:23:25.308Z,101890.38
2024-02-27T23:25:54.284Z,101894.81
2024-02-27T23:28:25.394Z,101886.06
2024-02-27T23:30:53.912Z,101856.63
2024-02-27T23:33:21.744Z,101875.63
2024-02-27T23:35:49.731Z,101876.56
2024-02-27T23:38:18.416Z,101888.47
2024-02-27T23:40:47.051Z,101907.16
2024-02-27T23:43:16.175Z,101890.63
2024-02-27T23:45:44.078Z,101899.59
2024-02-27T23:48:11.835Z,101896.25
2024-02-27T23:50:39.528Z,101895.66
2024-02-27T23:53:07.274Z,101886.94
2024-02-27T23:55:35.412Z,101889.56
2024-02-27T23:58:03.480Z,101877.50
